createdAt,value
2024-05-09T00:01:07.905Z,89.67
2024-05-09T00:06:08.038Z,90.08
2024-05-09T00:11:07.834Z,89.67
2024-05-09T00:16:07.755Z,89.51
2024-05-09T00:21:07.800Z,90.02
2024-05-09T00:26:07.617Z,89.72
2024-05-09T00:31:07.551Z,89.92
2024-05-09T00:36:07.476Z,89.76
2024-05-09T00:41:07.542Z,89.86
2024-05-09T00:46:07.372Z,90.06
2024-05-09T00:51:07.405Z,90.11
2024-05-09T00:56:07.264Z,89.90
2024-05-09T01:01:07.296Z,90.00
2024-05-09T01:06:07.194Z,90.11
2024-05-09T01:11:07.180Z,90.66
2024-05-09T01:16:07.125Z,90.15
2024-05-09T01:21:07.045Z,90.45
2024-05-09T01:26:06.972Z,90.56
2024-05-09T01:31:06.912Z,90.39
2024-05-09T01:36:06.822Z,90.60
2024-05-09T01:41:06.876Z,90.39
2024-05-09T01:46:06.726Z,91.01
2024-05-09T01:51:06.826Z,91.11
2024-05-09T01:56:06.675Z,90.54
2024-05-09T02:01:06.711Z,90.95
2024-05-09T02:06:06.797Z,90.54
2024-05-09T02:11:06.532Z,90.54
2024-05-09T02:16:06.404Z,90.99
2024-05-09T02:21:06.476Z,90.99
2024-05-09T02:26:06.320Z,90.89
2024-05-09T02:31:06.255Z,90.99
2024-05-09T02:36:06.168Z,90.89
2024-05-09T02:41:06.205Z,91.03
2024-05-09T02:46:06.080Z,91.24
2024-05-09T02:51:06.217Z,91.03
2024-05-09T02:56:06.024Z,91.35
2024-05-09T03:01:05.996Z,91.08
2024-05-09T03:06:05.870Z,91.69
2024-05-09T03:11:05.851Z,91.80
2024-05-09T03:16:05.705Z,91.69
2024-05-09T03:21:05.798Z,91.63
2024-05-09T03:26:05.612Z,91.53
2024-05-09T03:31:05.547Z,91.42
2024-05-09T03:36:08.235Z,91.88
2024-05-09T03:41:05.506Z,91.78
2024-05-09T03:46:05.398Z,91.88
2024-05-09T03:51:05.501Z,92.08
2024-05-09T03:56:05.312Z,91.99
2024-05-09T04:01:05.305Z,91.99
2024-05-09T04:06:05.216Z,92.19
2024-05-09T04:11:05.269Z,92.23
2024-05-09T04:16:05.057Z,92.13
2024-05-09T04:21:05.217Z,91.99
2024-05-09T04:26:05.069Z,91.99
2024-05-09T04:31:04.905Z,92.19
2024-05-09T04:36:04.826Z,92.29
2024-05-09T04:41:04.836Z,92.29
2024-05-09T04:46:04.699Z,92.04
2024-05-09T04:51:04.739Z,92.04
2024-05-09T04:56:04.653Z,91.94
2024-05-09T05:01:04.611Z,91.80
2024-05-09T05:06:04.592Z,91.38
2024-05-09T05:11:04.625Z,91.24
2024-05-09T05:16:04.375Z,91.03
2024-05-09T05:21:04.398Z,90.58
2024-05-09T05:26:04.341Z,90.54
2024-05-09T05:31:06.263Z,90.13
2024-05-09T05:36:04.189Z,89.78
2024-05-09T05:41:05.207Z,89.33
2024-05-09T05:46:04.074Z,89.18
2024-05-09T05:51:04.800Z,88.90
2024-05-09T05:56:04.021Z,88.35
2024-05-09T06:01:04.074Z,88.10
2024-05-09T06:06:04.243Z,87.20
2024-05-09T06:11:04.091Z,86.45
2024-05-09T06:16:04.798Z,86.71
2024-05-09T06:21:03.803Z,85.72
2024-05-09T06:26:03.677Z,85.33
2024-05-09T06:31:03.624Z,84.78
2024-05-09T06:36:04.274Z,84.23
2024-05-09T06:41:03.617Z,82.98
2024-05-09T06:46:03.432Z,83.40
2024-05-09T06:51:03.398Z,82.76
2024-05-09T06:56:03.355Z,81.57
2024-05-09T07:01:03.430Z,80.92
2024-05-09T07:06:03.403Z,80.07
2024-05-09T07:11:03.330Z,79.13
2024-05-09T07:16:03.122Z,78.44
2024-05-09T07:21:03.124Z,76.65
2024-05-09T07:26:03.032Z,76.82
2024-05-09T07:31:03.038Z,75.27
2024-05-09T07:36:02.882Z,75.60
2024-05-09T07:41:02.910Z,74.05
2024-05-09T07:47:14.322Z,74.08
2024-05-09T07:56:02.890Z,70.86
2024-05-09T08:01:02.819Z,70.53
2024-05-09T08:06:02.563Z,68.76
2024-05-09T08:11:02.679Z,67.72
2024-05-09T08:16:02.571Z,65.95
2024-05-09T08:21:02.423Z,65.01
2024-05-09T08:26:02.341Z,64.69
2024-05-09T08:31:05.164Z,61.62
2024-05-09T08:36:02.242Z,58.86
2024-05-09T08:41:02.230Z,58.17
2024-05-09T08:46:02.208Z,57.64
2024-05-09T08:51:02.204Z,57.64
2024-05-09T08:56:02.043Z,57.21
2024-05-09T09:01:02.105Z,58.31
2024-05-09T09:06:01.942Z,55.21
2024-05-09T09:11:01.914Z,57.91
2024-05-09T09:16:01.873Z,58.68
2024-05-09T09:21:01.832Z,56.85
2024-05-09T09:26:01.850Z,53.24
2024-05-09T09:31:01.873Z,53.14
2024-05-09T09:36:01.649Z,50.43
2024-05-09T09:41:01.896Z,49.73
2024-05-09T09:46:01.611Z,48.78
2024-05-09T09:51:01.608Z,50.92
2024-05-09T09:56:01.465Z,49.51
2024-05-09T10:01:01.559Z,46.91
2024-05-09T10:06:01.426Z,49.33
2024-05-09T10:11:01.448Z,49.01
2024-05-09T10:16:01.295Z,48.66
2024-05-09T10:21:01.280Z,48.68
2024-05-09T10:26:01.229Z,49.90
2024-05-09T10:31:01.204Z,48.68
2024-05-09T10:36:01.099Z,48.83
2024-05-09T10:41:01.097Z,47.02
2024-05-09T10:46:01.150Z,46.03
2024-05-09T10:51:01.101Z,46.83
2024-05-09T10:56:00.899Z,48.86
2024-05-09T11:01:03.399Z,50.30
2024-05-09T11:06:00.893Z,46.31
2024-05-09T11:11:00.784Z,47.74
2024-05-09T11:16:00.825Z,49.35
2024-05-09T11:21:00.821Z,47.50
2024-05-09T11:26:00.694Z,50.02
2024-05-09T11:31:00.787Z,51.29
2024-05-09T11:36:00.513Z,48.08
2024-05-09T11:41:00.462Z,48.95
2024-05-09T11:46:00.491Z,47.26
2024-05-09T11:51:00.391Z,46.73
2024-05-09T11:56:00.430Z,47.02
2024-05-09T12:01:00.336Z,46.54
2024-05-09T12:06:00.570Z,45.45
2024-05-09T12:11:00.480Z,45.90
2024-05-09T12:16:00.182Z,47.37
2024-05-09T12:21:00.099Z,44.26
2024-05-09T12:26:00.047Z,45.23
2024-05-09T12:31:00.082Z,47.27
2024-05-09T12:35:59.985Z,46.72
2024-05-09T12:41:00.007Z,45.04
2024-05-09T12:45:59.938Z,47.45
2024-05-09T12:50:59.809Z,48.95
2024-05-09T12:56:02.330Z,48.80
2024-05-09T13:00:59.815Z,48.71
2024-05-09T13:05:59.769Z,45.92
2024-05-09T13:10:59.645Z,48.61
2024-05-09T13:15:59.683Z,49.10
2024-05-09T13:20:59.479Z,48.83
2024-05-09T13:25:59.472Z,47.93
2024-05-09T13:30:59.457Z,46.59
2024-05-09T13:35:59.342Z,44.76
2024-05-09T13:40:59.439Z,42.85
2024-05-09T13:45:59.425Z,41.12
2024-05-09T13:50:59.404Z,43.98
2024-05-09T13:55:59.143Z,42.07
2024-05-09T14:00:59.225Z,43.85
2024-05-09T14:05:59.226Z,41.99
2024-05-09T14:10:59.154Z,42.96
2024-05-09T14:15:59.057Z,41.85
2024-05-09T14:20:58.924Z,42.63
2024-05-09T14:25:58.842Z,42.63
2024-05-09T14:31:01.817Z,42.99
2024-05-09T14:36:00.340Z,42.51
2024-05-09T14:40:59.022Z,43.42
2024-05-09T14:45:58.718Z,43.24
2024-05-09T14:50:58.649Z,43.82
2024-05-09T14:55:58.628Z,41.99
2024-05-09T15:00:58.765Z,40.56
2024-05-09T15:05:58.495Z,40.33
2024-05-09T15:10:58.648Z,40.74
2024-05-09T15:15:58.391Z,37.24
2024-05-09T15:20:58.540Z,40.42
2024-05-09T15:25:58.333Z,42.86
2024-05-09T15:30:58.311Z,44.54
2024-05-09T15:35:58.182Z,46.79
2024-05-09T15:40:58.155Z,47.09
2024-05-09T15:45:58.093Z,47.14
2024-05-09T15:50:58.178Z,48.03
2024-05-09T15:55:57.982Z,48.13
2024-05-09T16:00:58.065Z,49.65
2024-05-09T16:05:57.903Z,48.00
2024-05-09T16:10:58.121Z,49.68
2024-05-09T16:15:57.811Z,50.99
2024-05-09T16:20:57.821Z,49.30
2024-05-09T16:25:57.713Z,50.24
2024-05-09T16:30:57.662Z,50.95
2024-05-09T16:35:57.558Z,51.54
2024-05-09T16:40:57.660Z,52.77
2024-05-09T16:45:58.418Z,53.52
2024-05-09T16:50:57.393Z,53.52
2024-05-09T16:55:57.369Z,55.15
2024-05-09T17:00:57.524Z,56.17
2024-05-09T17:05:57.295Z,54.57
2024-05-09T17:10:57.284Z,54.87
2024-05-09T17:15:57.526Z,55.44
2024-05-09T17:20:57.073Z,56.05
2024-05-09T17:25:57.343Z,55.85
2024-05-09T17:30:57.111Z,55.55
2024-05-09T17:35:56.892Z,56.48
2024-05-09T17:40:56.913Z,56.48
2024-05-09T17:45:56.846Z,55.47
2024-05-09T17:50:56.772Z,55.17
2024-05-09T17:55:56.709Z,55.67
2024-05-09T18:00:56.689Z,57.10
2024-05-09T18:05:56.734Z,56.80
2024-05-09T18:10:56.637Z,56.83
2024-05-09T18:15:56.815Z,57.93
2024-05-09T18:20:56.439Z,56.83
2024-05-09T18:25:56.373Z,56.43
2024-05-09T18:30:56.357Z,57.76
2024-05-09T18:35:56.296Z,58.69
2024-05-09T18:40:56.356Z,59.01
2024-05-09T18:45:56.166Z,57.84
2024-05-09T18:50:56.293Z,58.24
2024-05-09T18:55:56.153Z,58.07
2024-05-09T19:00:58.395Z,58.57
2024-05-09T19:05:56.183Z,59.00
2024-05-09T19:10:56.160Z,59.74
2024-05-09T19:15:55.987Z,60.36
2024-05-09T19:20:55.859Z,61.57
2024-05-09T19:25:55.692Z,61.57
2024-05-09T19:30:55.692Z,61.10
2024-05-09T19:35:55.608Z,63.75
2024-05-09T19:40:55.749Z,62.54
2024-05-09T19:45:55.553Z,66.09
2024-05-09T19:50:55.536Z,64.72
2024-05-09T19:55:56.561Z,66.66
2024-05-09T20:00:55.540Z,68.41
2024-05-09T20:05:55.359Z,68.64
2024-05-09T20:10:55.387Z,72.11
2024-05-09T20:15:55.247Z,70.73
2024-05-09T20:20:55.299Z,71.77
2024-05-09T20:25:55.105Z,72.81
2024-05-09T20:30:55.126Z,74.03
2024-05-09T20:35:55.010Z,74.67
2024-05-09T20:40:54.978Z,75.01
2024-05-09T20:45:55.022Z,76.43
2024-05-09T20:50:54.938Z,76.06
2024-05-09T20:55:54.798Z,77.48
2024-05-09T21:00:54.842Z,78.12
2024-05-09T21:05:54.701Z,78.87
2024-05-09T21:10:54.811Z,79.17
2024-05-09T21:15:54.722Z,79.51
2024-05-09T21:20:54.530Z,80.83
2024-05-09T21:25:54.466Z,80.87
2024-05-09T21:30:54.500Z,81.07
2024-05-09T21:35:54.358Z,80.97
2024-05-09T21:40:54.410Z,81.62
2024-05-09T21:45:54.363Z,82.84
2024-05-09T21:50:54.267Z,83.08
2024-05-09T21:55:54.142Z,83.28
2024-05-09T22:00:54.183Z,83.28
2024-05-09T22:05:54.963Z,83.22
2024-05-09T22:10:54.143Z,83.83
2024-05-09T22:15:55.077Z,83.83
2024-05-09T22:20:54.010Z,84.38
2024-05-09T22:25:53.839Z,84.99
2024-05-09T22:30:53.845Z,84.78
2024-05-09T22:35:53.769Z,85.64
2024-05-09T22:40:53.738Z,85.68
2024-05-09T22:45:53.865Z,85.47
2024-05-09T22:50:53.870Z,85.88
2024-05-09T22:55:53.520Z,86.29
2024-05-09T23:00:53.732Z,86.33
2024-05-09T23:05:53.510Z,86.63
2024-05-09T23:10:53.702Z,87.49
2024-05-09T23:15:53.317Z,87.49
2024-05-09T23:20:53.253Z,87.08
2024-05-09T23:25:53.227Z,87.29
2024-05-09T23:30:53.294Z,87.84
2024-05-09T23:35:53.063Z,88.04
2024-05-09T23:40:53.129Z,87.63
2024-05-09T23:45:53.058Z,88.28
2024-05-09T23:50:52.939Z,88.90
2024-05-09T23:55:52.877Z,88.49
